sensor_id;sensor_type;location;lat;lon;timestamp;pressure;altitude;pressure_sealevel;temperature;humidity
48606;BME280;8482;54.396;18.590;2022-11-15T00:00:54;101698.44;;;9.12;75.35
48606;BME280;8482;54.396;18.590;2022-11-15T00:03:26;101696.75;;;9.11;75.47
48606;BME280;8482;54.396;18.590;2022-11-15T00:05:53;101683.50;;;9.11;75.82
48606;BME280;8482;54.396;18.590;2022-11-15T00:08:19;101683.50;;;9.11;75.72
48606;BME280;8482;54.396;18.590;2022-11-15T00:10:56;101691.34;;;9.12;75.68
48606;BME280;8482;54.396;18.590;2022-11-15T00:13:23;101689.63;;;9.11;75.64
48606;BME280;8482;54.396;18.590;2022-11-15T00:15:48;101686.16;;;9.11;75.78
48606;BME280;8482;54.396;18.590;2022-11-15T00:18:15;101674.69;;;9.10;75.76
48606;BME280;8482;54.396;18.590;2022-11-15T00:20:41;101681.69;;;9.11;75.97
48606;BME280;8482;54.396;18.590;2022-11-15T00:23:09;101676.41;;;9.11;75.91
48606;BME280;8482;54.396;18.590;2022-11-15T00:25:35;101677.44;;;9.09;75.62
48606;BME280;8482;54.396;18.590;2022-11-15T00:28:01;101682.63;;;9.10;76.25
48606;BME280;8482;54.396;18.590;2022-11-15T00:30:27;101673.94;;;9.08;76.00
48606;BME280;8482;54.396;18.590;2022-11-15T00:32:54;101677.34;;;9.10;76.50
48606;BME280;8482;54.396;18.590;2022-11-15T00:35:20;101680.75;;;9.12;76.52
48606;BME280;8482;54.396;18.590;2022-11-15T00:37:46;101677.28;;;9.12;76.39
48606;BME280;8482;54.396;18.590;2022-11-15T00:40:14;101673.84;;;9.10;76.42
48606;BME280;8482;54.396;18.590;2022-11-15T00:42:40;101670.34;;;9.09;76.37
48606;BME280;8482;54.396;18.590;2022-11-15T00:45:07;101673.75;;;9.11;76.42
48606;BME280;8482;54.396;18.590;2022-11-15T00:47:33;101671.13;;;9.11;76.23
48606;BME280;8482;54.396;18.590;2022-11-15T00:49:59;101672.22;;;9.07;76.26
48606;BME280;8482;54.396;18.590;2022-11-15T00:52:24;101666.94;;;9.07;76.38
48606;BME280;8482;54.396;18.590;2022-11-15T00:54:50;101662.50;;;9.08;76.69
48606;BME280;8482;54.396;18.590;2022-11-15T00:57:16;101658.06;;;9.08;76.64
48606;BME280;8482;54.396;18.590;2022-11-15T00:59:44;101659.00;;;9.07;76.76
48606;BME280;8482;54.396;18.590;2022-11-15T01:02:10;101653.69;;;9.07;76.66
48606;BME280;8482;54.396;18.590;2022-11-15T01:04:36;101652.75;;;9.08;76.47
48606;BME280;8482;54.396;18.590;2022-11-15T01:07:02;101646.44;;;9.11;76.64
48606;BME280;8482;54.396;18.590;2022-11-15T01:09:28;101654.41;;;9.11;76.03
48606;BME280;8482;54.396;18.590;2022-11-15T01:11:53;101645.59;;;9.10;76.37
48606;BME280;8482;54.396;18.590;2022-11-15T01:14:19;101638.59;;;9.09;76.25
48606;BME280;8482;54.396;18.590;2022-11-15T01:16:45;101640.47;;;9.07;76.26
48606;BME280;8482;54.396;18.590;2022-11-15T01:19:10;101631.03;;;9.03;76.71
48606;BME280;8482;54.396;18.590;2022-11-15T01:21:37;101638.00;;;9.04;76.53
48606;BME280;8482;54.396;18.590;2022-11-15T01:24:02;101631.03;;;9.03;76.71
48606;BME280;8482;54.396;18.590;2022-11-15T01:26:28;101625.63;;;9.04;76.73
48606;BME280;8482;54.396;18.590;2022-11-15T01:28:54;101627.50;;;9.02;76.32
48606;BME280;8482;54.396;18.590;2022-11-15T01:31:21;101621.53;;;8.99;76.34
48606;BME280;8482;54.396;18.590;2022-11-15T01:33:48;101613.72;;;8.97;76.32
48606;BME280;8482;54.396;18.590;2022-11-15T01:36:20;101603.28;;;8.94;76.82
48606;BME280;8482;54.396;18.590;2022-11-15T01:38:57;101611.13;;;8.96;76.52
48606;BME280;8482;54.396;18.590;2022-11-15T01:41:31;101604.13;;;8.95;76.33
48606;BME280;8482;54.396;18.590;2022-11-15T01:47:04;101589.56;;;8.87;76.54
48606;BME280;8482;54.396;18.590;2022-11-15T01:49:35;101595.63;;;8.89;76.72
48606;BME280;8482;54.396;18.590;2022-11-15T01:52:09;101581.81;;;8.84;76.64
48606;BME280;8482;54.396;18.590;2022-11-15T01:54:36;101593.06;;;8.88;77.02
48606;BME280;8482;54.396;18.590;2022-11-15T01:57:10;101589.75;;;8.84;76.81
48606;BME280;8482;54.396;18.590;2022-11-15T01:59:40;101587.84;;;8.86;77.12
48606;BME280;8482;54.396;18.590;2022-11-15T02:02:08;101579.91;;;8.86;76.72
48606;BME280;8482;54.396;18.590;2022-11-15T02:04:44;101563.38;;;8.83;76.48
48606;BME280;8482;54.396;18.590;2022-11-15T02:07:14;101566.09;;;8.81;76.72
48606;BME280;8482;54.396;18.590;2022-11-15T02:09:42;101560.81;;;8.81;77.29
48606;BME280;8482;54.396;18.590;2022-11-15T02:12:10;101563.38;;;8.83;77.39
48606;BME280;8482;54.396;18.590;2022-11-15T02:14:43;101559.88;;;8.82;77.49
48606;BME280;8482;54.396;18.590;2022-11-15T02:17:24;101557.22;;;8.82;77.29
48606;BME280;8482;54.396;18.590;2022-11-15T02:29:07;101544.94;;;8.81;78.09
48606;BME280;8482;54.396;18.590;2022-11-15T02:31:51;101541.44;;;8.81;77.73
48606;BME280;8482;54.396;18.590;2022-11-15T02:34:52;101537.88;;;8.82;78.15
48606;BME280;8482;54.396;18.590;2022-11-15T02:37:59;101536.25;;;8.79;77.91
48606;BME280;8482;54.396;18.590;2022-11-15T02:41:17;101533.63;;;8.79;78.34
48606;BME280;8482;54.396;18.590;2022-11-15T02:44:23;101526.63;;;8.78;78.04
48606;BME280;8482;54.396;18.590;2022-11-15T02:46:56;101532.84;;;8.77;78.19
48606;BME280;8482;54.396;18.590;2022-11-15T02:49:43;101534.56;;;8.78;78.25
48606;BME280;8482;54.396;18.590;2022-11-15T02:52:19;101528.41;;;8.78;78.05
48606;BME280;8482;54.396;18.590;2022-11-15T02:54:57;101533.63;;;8.79;78.06
48606;BME280;8482;54.396;18.590;2022-11-15T03:00:10;101525.69;;;8.79;77.68
48606;BME280;8482;54.396;18.590;2022-11-15T03:03:05;101526.53;;;8.80;78.00
48606;BME280;8482;54.396;18.590;2022-11-15T03:06:04;101518.59;;;8.80;77.96
48606;BME280;8482;54.396;18.590;2022-11-15T03:09:02;101514.22;;;8.79;78.03
48606;BME280;8482;54.396;18.590;2022-11-15T03:11:36;101511.69;;;8.77;77.97
48606;BME280;8482;54.396;18.590;2022-11-15T03:14:30;101501.19;;;8.76;77.89
48606;BME280;8482;54.396;18.590;2022-11-15T03:17:23;101506.56;;;8.74;77.92
48606;BME280;8482;54.396;18.590;2022-11-15T03:19:57;101498.75;;;8.72;78.07
48606;BME280;8482;54.396;18.590;2022-11-15T03:22:29;101497.09;;;8.70;77.92
48606;BME280;8482;54.396;18.590;2022-11-15T03:25:04;101500.69;;;8.69;78.30
48606;BME280;8482;54.396;18.590;2022-11-15T03:27:41;101502.56;;;8.67;78.03
48606;BME280;8482;54.396;18.590;2022-11-15T03:30:09;101494.75;;;8.65;78.63
48606;BME280;8482;54.396;18.590;2022-11-15T03:32:49;101489.63;;;8.62;78.51
48606;BME280;8482;54.396;18.590;2022-11-15T03:35:22;101491.44;;;8.62;78.56
48606;BME280;8482;54.396;18.590;2022-11-15T03:38:19;101490.66;;;8.59;78.93
48606;BME280;8482;54.396;18.590;2022-11-15T03:41:04;101486.31;;;8.58;78.95
48606;BME280;8482;54.396;18.590;2022-11-15T03:43:54;101486.03;;;8.63;79.19
48606;BME280;8482;54.396;18.590;2022-11-15T03:46:32;101495.78;;;8.63;78.94
48606;BME280;8482;54.396;18.590;2022-11-15T03:49:27;101496.63;;;8.63;78.91
48606;BME280;8482;54.396;18.590;2022-11-15T03:51:57;101498.41;;;8.63;79.15
48606;BME280;8482;54.396;18.590;2022-11-15T03:54:24;101493.13;;;8.63;79.24
48606;BME280;8482;54.396;18.590;2022-11-15T03:56:49;101492.25;;;8.62;79.28
48606;BME280;8482;54.396;18.590;2022-11-15T03:59:15;101484.44;;;8.61;79.25
48606;BME280;8482;54.396;18.590;2022-11-15T04:01:41;101471.31;;;8.59;79.49
48606;BME280;8482;54.396;18.590;2022-11-15T04:04:07;101473.19;;;8.57;79.45
48606;BME280;8482;54.396;18.590;2022-11-15T04:06:32;101477.53;;;8.58;79.39
48606;BME280;8482;54.396;18.590;2022-11-15T04:08:58;101477.63;;;8.56;79.65
48606;BME280;8482;54.396;18.590;2022-11-15T04:11:24;101476.84;;;8.54;79.63
48606;BME280;8482;54.396;18.590;2022-11-15T04:13:49;101481.28;;;8.54;79.84
48606;BME280;8482;54.396;18.590;2022-11-15T04:16:15;101481.41;;;8.52;79.45
48606;BME280;8482;54.396;18.590;2022-11-15T04:18:41;101482.22;;;8.53;79.25
48606;BME280;8482;54.396;18.590;2022-11-15T04:21:08;101483.09;;;8.53;79.55
48606;BME280;8482;54.396;18.590;2022-11-15T04:23:52;101485.66;;;8.55;78.99
48606;BME280;8482;54.396;18.590;2022-11-15T04:26:36;101482.22;;;8.53;78.79
48606;BME280;8482;54.396;18.590;2022-11-15T04:29:02;101490.28;;;8.51;78.50
48606;BME280;8482;54.396;18.590;2022-11-15T04:31:46;101477.22;;;8.48;78.33
48606;BME280;8482;54.396;18.590;2022-11-15T04:34:12;101481.66;;;8.48;78.41
48606;BME280;8482;54.396;18.590;2022-11-15T04:36:37;101481.72;;;8.46;78.76
48606;BME280;8482;54.396;18.590;2022-11-15T04:39:22;101488.72;;;8.47;78.43
48606;BME280;8482;54.396;18.590;2022-11-15T04:41:47;101488.72;;;8.47;78.01
48606;BME280;8482;54.396;18.590;2022-11-15T04:44:13;101480.88;;;8.46;78.48
48606;BME280;8482;54.396;18.590;2022-11-15T04:46:39;101483.59;;;8.44;78.02
48606;BME280;8482;54.396;18.590;2022-11-15T04:49:04;101475.66;;;8.44;78.16
48606;BME280;8482;54.396;18.590;2022-11-15T04:51:30;101470.53;;;8.41;78.10
48606;BME280;8482;54.396;18.590;2022-11-15T04:53:56;101467.22;;;8.37;78.23
48606;BME280;8482;54.396;18.590;2022-11-15T04:56:22;101468.16;;;8.36;78.72
48606;BME280;8482;54.396;18.590;2022-11-15T04:58:51;101462.13;;;8.34;78.30
48606;BME280;8482;54.396;18.590;2022-11-15T05:01:17;101463.75;;;8.37;78.65
48606;BME280;8482;54.396;18.590;2022-11-15T05:03:44;101461.94;;;8.37;78.93
48606;BME280;8482;54.396;18.590;2022-11-15T05:06:29;101459.22;;;8.39;79.20
48606;BME280;8482;54.396;18.590;2022-11-15T05:08:55;101468.75;;;8.41;78.71
48606;BME280;8482;54.396;18.590;2022-11-15T05:11:22;101465.25;;;8.41;78.74
48606;BME280;8482;54.396;18.590;2022-11-15T05:13:47;101464.31;;;8.42;78.25
48606;BME280;8482;54.396;18.590;2022-11-15T05:16:14;101456.38;;;8.42;78.44
48606;BME280;8482;54.396;18.590;2022-11-15T05:18:40;101462.44;;;8.44;78.65
48606;BME280;8482;54.396;18.590;2022-11-15T05:21:10;101455.44;;;8.43;78.75
48606;BME280;8482;54.396;18.590;2022-11-15T05:23:37;101454.59;;;8.42;78.30
48606;BME280;8482;54.396;18.590;2022-11-15T05:26:05;101460.66;;;8.44;78.36
48606;BME280;8482;54.396;18.590;2022-11-15T05:28:32;101453.56;;;8.45;78.30
48606;BME280;8482;54.396;18.590;2022-11-15T05:31:07;101459.78;;;8.44;77.96
48606;BME280;8482;54.396;18.590;2022-11-15T05:33:35;101458.09;;;8.43;78.00
48606;BME280;8482;54.396;18.590;2022-11-15T05:36:39;101459.03;;;8.42;77.85
48606;BME280;8482;54.396;18.590;2022-11-15T05:39:07;101457.31;;;8.41;78.09
48606;BME280;8482;54.396;18.590;2022-11-15T05:41:47;101452.13;;;8.39;78.05
48606;BME280;8482;54.396;18.590;2022-11-15T05:44:20;101465.34;;;8.39;78.06
48606;BME280;8482;54.396;18.590;2022-11-15T05:46:48;101465.34;;;8.39;78.56
48606;BME280;8482;54.396;18.590;2022-11-15T05:49:19;101469.81;;;8.39;78.36
48606;BME280;8482;54.396;18.590;2022-11-15T05:51:48;101461.88;;;8.39;78.44
48606;BME280;8482;54.396;18.590;2022-11-15T05:54:16;101465.34;;;8.39;78.51
48606;BME280;8482;54.396;18.590;2022-11-15T05:56:43;101461.00;;;8.38;78.47
48606;BME280;8482;54.396;18.590;2022-11-15T05:59:10;101460.16;;;8.38;78.89
48606;BME280;8482;54.396;18.590;2022-11-15T06:01:38;101459.22;;;8.39;78.47
48606;BME280;8482;54.396;18.590;2022-11-15T06:04:04;101460.16;;;8.38;78.45
48606;BME280;8482;54.396;18.590;2022-11-15T06:06:30;101453.94;;;8.39;78.39
48606;BME280;8482;54.396;18.590;2022-11-15T06:08:56;101464.50;;;8.39;78.22
48606;BME280;8482;54.396;18.590;2022-11-15T06:11:21;101465.47;;;8.38;78.14
48606;BME280;8482;54.396;18.590;2022-11-15T06:13:47;101476.03;;;8.38;77.96
48606;BME280;8482;54.396;18.590;2022-11-15T06:16:13;101468.16;;;8.36;77.75
48606;BME280;8482;54.396;18.590;2022-11-15T06:18:39;101473.47;;;8.36;77.28
48606;BME280;8482;54.396;18.590;2022-11-15T06:21:05;101470.81;;;8.36;77.59
48606;BME280;8482;54.396;18.590;2022-11-15T06:23:33;101471.69;;;8.37;77.29
48606;BME280;8482;54.396;18.590;2022-11-15T06:26:01;101473.56;;;8.35;77.52
48606;BME280;8482;54.396;18.590;2022-11-15T06:28:34;101472.63;;;8.36;77.56
48606;BME280;8482;54.396;18.590;2022-11-15T06:31:10;101463.09;;;8.33;77.26
48606;BME280;8482;54.396;18.590;2022-11-15T06:33:38;101471.69;;;8.37;77.55
48606;BME280;8482;54.396;18.590;2022-11-15T06:36:11;101468.28;;;8.35;77.52
48606;BME280;8482;54.396;18.590;2022-11-15T06:38:39;101472.69;;;8.34;77.45
48606;BME280;8482;54.396;18.590;2022-11-15T06:41:08;101474.50;;;8.34;77.73
48606;BME280;8482;54.396;18.590;2022-11-15T06:43:35;101474.59;;;8.32;77.63
48606;BME280;8482;54.396;18.590;2022-11-15T06:46:03;101472.69;;;8.34;77.88
48606;BME280;8482;54.396;18.590;2022-11-15T06:48:30;101468.16;;;8.36;78.02
48606;BME280;8482;54.396;18.590;2022-11-15T06:50:59;101468.16;;;8.36;78.06
48606;BME280;8482;54.396;18.590;2022-11-15T06:53:26;101468.28;;;8.35;77.73
48606;BME280;8482;54.396;18.590;2022-11-15T06:55:52;101464.75;;;8.34;78.05
48606;BME280;8482;54.396;18.590;2022-11-15T06:58:20;101467.34;;;8.36;78.25
48606;BME280;8482;54.396;18.590;2022-11-15T07:00:46;101461.28;;;8.34;78.09
48606;BME280;8482;54.396;18.590;2022-11-15T07:03:12;101462.22;;;8.33;78.23
48606;BME280;8482;54.396;18.590;2022-11-15T07:05:38;101471.84;;;8.34;78.45
48606;BME280;8482;54.396;18.590;2022-11-15T07:08:04;101477.91;;;8.36;78.42
48606;BME280;8482;54.396;18.590;2022-11-15T07:10:30;101476.09;;;8.36;78.34
48606;BME280;8482;54.396;18.590;2022-11-15T07:12:56;101470.91;;;8.35;78.68
48606;BME280;8482;54.396;18.590;2022-11-15T07:15:26;101480.44;;;8.37;78.65
48606;BME280;8482;54.396;18.590;2022-11-15T07:17:52;101485.66;;;8.39;78.49
48606;BME280;8482;54.396;18.590;2022-11-15T07:20:18;101482.16;;;8.38;78.44
48606;BME280;8482;54.396;18.590;2022-11-15T07:22:44;101481.38;;;8.36;78.16
48606;BME280;8482;54.396;18.590;2022-11-15T07:25:12;101471.84;;;8.34;78.39
48606;BME280;8482;54.396;18.590;2022-11-15T07:27:38;101477.91;;;8.36;78.15
48606;BME280;8482;54.396;18.590;2022-11-15T07:30:05;101466.56;;;8.34;78.00
48606;BME280;8482;54.396;18.590;2022-11-15T07:32:31;101463.91;;;8.34;78.22
48606;BME280;8482;54.396;18.590;2022-11-15T07:34:57;101467.34;;;8.36;78.12
48606;BME280;8482;54.396;18.590;2022-11-15T07:37:22;101462.88;;;8.36;78.16
48606;BME280;8482;54.396;18.590;2022-11-15T07:39:48;101474.31;;;8.37;78.35
48606;BME280;8482;54.396;18.590;2022-11-15T07:42:14;101476.03;;;8.38;77.73
48606;BME280;8482;54.396;18.590;2022-11-15T07:44:58;101469.03;;;8.37;78.07
48606;BME280;8482;54.396;18.590;2022-11-15T07:47:24;101462.81;;;8.38;77.91
48606;BME280;8482;54.396;18.590;2022-11-15T07:49:50;101469.72;;;8.40;78.00
48606;BME280;8482;54.396;18.590;2022-11-15T07:52:16;101469.72;;;8.40;78.11
48606;BME280;8482;54.396;18.590;2022-11-15T07:54:41;101465.19;;;8.42;78.08
48606;BME280;8482;54.396;18.590;2022-11-15T07:57:07;101465.19;;;8.42;77.55
48606;BME280;8482;54.396;18.590;2022-11-15T07:59:34;101464.25;;;8.43;77.81
48606;BME280;8482;54.396;18.590;2022-11-15T08:02:00;101467.72;;;8.44;77.79
48606;BME280;8482;54.396;18.590;2022-11-15T08:04:26;101473.00;;;8.44;77.95
48606;BME280;8482;54.396;18.590;2022-11-15T08:06:52;101464.13;;;8.45;77.55
48606;BME280;8482;54.396;18.590;2022-11-15T08:09:18;101465.00;;;8.46;77.43
48606;BME280;8482;54.396;18.590;2022-11-15T08:11:43;101452.72;;;8.44;77.59
48606;BME280;8482;54.396;18.590;2022-11-15T08:14:09;101462.38;;;8.46;77.72
48606;BME280;8482;54.396;18.590;2022-11-15T08:16:35;101466.72;;;8.47;77.63
48606;BME280;8482;54.396;18.590;2022-11-15T08:19:01;101470.19;;;8.47;77.66
48606;BME280;8482;54.396;18.590;2022-11-15T08:21:27;101463.13;;;8.48;77.57
48606;BME280;8482;54.396;18.590;2022-11-15T08:23:52;101475.41;;;8.49;77.54
48606;BME280;8482;54.396;18.590;2022-11-15T08:26:18;101467.56;;;8.47;77.84
48606;BME280;8482;54.396;18.590;2022-11-15T08:28:44;101465.09;;;8.44;77.89
48606;BME280;8482;54.396;18.590;2022-11-15T08:31:15;101470.06;;;8.50;77.99
48606;BME280;8482;54.396;18.590;2022-11-15T08:33:42;101471.00;;;8.49;78.09
48606;BME280;8482;54.396;18.590;2022-11-15T08:36:14;101467.41;;;8.50;77.81
48606;BME280;8482;54.396;18.590;2022-11-15T08:38:40;101471.75;;;8.51;77.89
48606;BME280;8482;54.396;18.590;2022-11-15T08:41:06;101478.81;;;8.51;77.42
48606;BME280;8482;54.396;18.590;2022-11-15T08:43:33;101465.59;;;8.51;77.85
48606;BME280;8482;54.396;18.590;2022-11-15T08:45:59;101462.13;;;8.50;77.79
48606;BME280;8482;54.396;18.590;2022-11-15T08:48:24;101462.13;;;8.50;78.01
48606;BME280;8482;54.396;18.590;2022-11-15T08:50:57;101453.31;;;8.50;77.54
48606;BME280;8482;54.396;18.590;2022-11-15T08:53:23;101453.44;;;8.48;77.56
48606;BME280;8482;54.396;18.590;2022-11-15T08:55:48;101449.03;;;8.47;77.70
48606;BME280;8482;54.396;18.590;2022-11-15T08:58:14;101453.44;;;8.48;77.80
48606;BME280;8482;54.396;18.590;2022-11-15T09:00:40;101456.13;;;8.47;78.00
48606;BME280;8482;54.396;18.590;2022-11-15T09:03:07;101455.19;;;8.48;77.84
48606;BME280;8482;54.396;18.590;2022-11-15T09:05:36;101459.56;;;8.49;77.89
48606;BME280;8482;54.396;18.590;2022-11-15T09:08:04;101449.03;;;8.47;77.80
48606;BME280;8482;54.396;18.590;2022-11-15T09:10:29;101454.25;;;8.49;77.81
48606;BME280;8482;54.396;18.590;2022-11-15T09:12:57;101457.78;;;8.49;77.84
48606;BME280;8482;54.396;18.590;2022-11-15T09:15:23;101452.50;;;8.49;77.81
48606;BME280;8482;54.396;18.590;2022-11-15T09:17:49;101453.44;;;8.48;77.73
48606;BME280;8482;54.396;18.590;2022-11-15T09:20:15;101457.84;;;8.48;77.57
48606;BME280;8482;54.396;18.590;2022-11-15T09:22:41;101462.25;;;8.47;77.70
48606;BME280;8482;54.396;18.590;2022-11-15T09:25:07;101466.72;;;8.47;77.84
48606;BME280;8482;54.396;18.590;2022-11-15T09:27:33;101465.84;;;8.46;77.78
48606;BME280;8482;54.396;18.590;2022-11-15T09:29:59;101468.50;;;8.46;77.38
48606;BME280;8482;54.396;18.590;2022-11-15T09:32:29;101454.44;;;8.46;77.54
48606;BME280;8482;54.396;18.590;2022-11-15T09:34:56;101467.66;;;8.46;77.45
48606;BME280;8482;54.396;18.590;2022-11-15T09:37:22;101464.13;;;8.45;77.04
48606;BME280;8482;54.396;18.590;2022-11-15T09:39:48;101459.72;;;8.46;77.14
48606;BME280;8482;54.396;18.590;2022-11-15T09:45:30;101445.63;;;8.45;77.10
48606;BME280;8482;54.396;18.590;2022-11-15T09:50:54;101445.56;;;8.47;77.46
48606;BME280;8482;54.396;18.590;2022-11-15T09:53:48;101447.34;;;8.46;77.49
48606;BME280;8482;54.396;18.590;2022-11-15T09:56:23;101445.63;;;8.45;77.04
48606;BME280;8482;54.396;18.590;2022-11-15T10:03:57;101447.19;;;8.49;77.33
48606;BME280;8482;54.396;18.590;2022-11-15T10:06:26;101443.63;;;8.50;77.32
48606;BME280;8482;54.396;18.590;2022-11-15T10:09:29;101435.75;;;8.49;76.93
48606;BME280;8482;54.396;18.590;2022-11-15T10:11:59;101432.28;;;8.48;76.86
48606;BME280;8482;54.396;18.590;2022-11-15T10:14:29;101432.28;;;8.48;77.23
48606;BME280;8482;54.396;18.590;2022-11-15T10:17:31;101431.47;;;8.46;77.24
48606;BME280;8482;54.396;18.590;2022-11-15T10:20:30;101428.94;;;8.44;77.17
48606;BME280;8482;54.396;18.590;2022-11-15T10:23:06;101417.50;;;8.44;77.08
48606;BME280;8482;54.396;18.590;2022-11-15T10:25:34;101418.44;;;8.43;77.02
48606;BME280;8482;54.396;18.590;2022-11-15T10:28:29;101409.56;;;8.44;76.64
48606;BME280;8482;54.396;18.590;2022-11-15T10:31:00;101401.63;;;8.44;76.73
48606;BME280;8482;54.396;18.590;2022-11-15T10:33:38;101408.78;;;8.42;76.88
48606;BME280;8482;54.396;18.590;2022-11-15T10:36:21;101399.84;;;8.44;77.25
48606;BME280;8482;54.396;18.590;2022-11-15T10:41:29;101412.72;;;8.51;77.14
48606;BME280;8482;54.396;18.590;2022-11-15T10:46:35;101412.44;;;8.55;76.90
48606;BME280;8482;54.396;18.590;2022-11-15T10:49:25;101401.97;;;8.54;77.07
48606;BME280;8482;54.396;18.590;2022-11-15T10:52:02;101409.91;;;8.54;76.68
48606;BME280;8482;54.396;18.590;2022-11-15T10:54:41;101401.03;;;8.55;76.92
48606;BME280;8482;54.396;18.590;2022-11-15T10:57:16;101408.03;;;8.56;76.35
48606;BME280;8482;54.396;18.590;2022-11-15T10:59:50;101399.97;;;8.57;76.79
48606;BME280;8482;54.396;18.590;2022-11-15T11:02:39;101397.16;;;8.61;76.54
48606;BME280;8482;54.396;18.590;2022-11-15T11:13:24;101411.50;;;8.56;77.00
48606;BME280;8482;54.396;18.590;2022-11-15T11:16:40;101408.84;;;8.56;77.21
48606;BME280;8482;54.396;18.590;2022-11-15T11:25:30;101400.47;;;8.64;76.97
48606;BME280;8482;54.396;18.590;2022-11-15T11:28:44;101395.09;;;8.66;77.09
48606;BME280;8482;54.396;18.590;2022-11-15T11:31:47;101387.91;;;8.68;77.22
48606;BME280;8482;54.396;18.590;2022-11-15T11:37:19;101381.50;;;8.72;77.44
48606;BME280;8482;54.396;18.590;2022-11-15T11:46:09;101372.50;;;8.74;77.29
48606;BME280;8482;54.396;18.590;2022-11-15T11:48:51;101372.44;;;8.76;77.05
48606;BME280;8482;54.396;18.590;2022-11-15T11:51:27;101369.78;;;8.76;77.19
48606;BME280;8482;54.396;18.590;2022-11-15T11:54:24;101370.53;;;8.78;77.25
48606;BME280;8482;54.396;18.590;2022-11-15T11:56:54;101370.53;;;8.78;77.29
48606;BME280;8482;54.396;18.590;2022-11-15T11:59:49;101380.06;;;8.81;77.39
48606;BME280;8482;54.396;18.590;2022-11-15T12:02:39;101373.84;;;8.82;77.32
48606;BME280;8482;54.396;18.590;2022-11-15T12:05:24;101373.84;;;8.82;77.34
48606;BME280;8482;54.396;18.590;2022-11-15T12:08:01;101362.41;;;8.81;77.18
48606;BME280;8482;54.396;18.590;2022-11-15T12:10:33;101367.50;;;8.84;77.05
48606;BME280;8482;54.396;18.590;2022-11-15T12:13:16;101364.84;;;8.84;76.98
48606;BME280;8482;54.396;18.590;2022-11-15T12:18:24;101361.28;;;8.85;77.20
48606;BME280;8482;54.396;18.590;2022-11-15T12:21:02;101352.38;;;8.86;77.43
48606;BME280;8482;54.396;18.590;2022-11-15T12:23:38;101362.13;;;8.86;77.33
48606;BME280;8482;54.396;18.590;2022-11-15T12:26:26;101360.44;;;8.85;77.17
48606;BME280;8482;54.396;18.590;2022-11-15T12:29:01;101362.03;;;8.87;77.24
48606;BME280;8482;54.396;18.590;2022-11-15T12:34:12;101361.28;;;8.85;77.42
48606;BME280;8482;54.396;18.590;2022-11-15T12:36:43;101361.28;;;8.85;77.38
48606;BME280;8482;54.396;18.590;2022-11-15T12:39:12;101359.56;;;8.84;77.55
48606;BME280;8482;54.396;18.590;2022-11-15T13:02:40;101359.38;;;8.87;78.40
48606;BME280;8482;54.396;18.590;2022-11-15T13:17:46;101352.38;;;8.86;78.80
48606;BME280;8482;54.396;18.590;2022-11-15T13:23:07;101344.56;;;8.85;79.02
48606;BME280;8482;54.396;18.590;2022-11-15T13:33:31;101343.88;;;8.81;79.03
48606;BME280;8482;54.396;18.590;2022-11-15T13:36:22;101338.59;;;8.81;79.30
48606;BME280;8482;54.396;18.590;2022-11-15T13:41:29;101331.69;;;8.79;79.44
48606;BME280;8482;54.396;18.590;2022-11-15T13:43:57;101331.81;;;8.77;79.58
48606;BME280;8482;54.396;18.590;2022-11-15T13:46:33;101330.94;;;8.77;79.77
48606;BME280;8482;54.396;18.590;2022-11-15T13:49:07;101340.75;;;8.74;79.92
48606;BME280;8482;54.396;18.590;2022-11-15T13:51:44;101338.22;;;8.73;79.82
48606;BME280;8482;54.396;18.590;2022-11-15T13:56:41;101343.69;;;8.70;80.45
48606;BME280;8482;54.396;18.590;2022-11-15T13:59:25;101346.44;;;8.68;80.30
48606;BME280;8482;54.396;18.590;2022-11-15T14:01:54;101344.63;;;8.69;80.50
48606;BME280;8482;54.396;18.590;2022-11-15T14:04:23;101338.50;;;8.68;80.90
48606;BME280;8482;54.396;18.590;2022-11-15T14:06:55;101341.03;;;8.70;81.00
48606;BME280;8482;54.396;18.590;2022-11-15T14:09:39;101342.09;;;8.67;80.17
48606;BME280;8482;54.396;18.590;2022-11-15T14:12:31;101342.22;;;8.66;80.36
48606;BME280;8482;54.396;18.590;2022-11-15T14:15:38;101332.56;;;8.65;80.61
48606;BME280;8482;54.396;18.590;2022-11-15T14:18:05;101337.16;;;8.61;80.46
48606;BME280;8482;54.396;18.590;2022-11-15T14:20:34;101335.50;;;8.60;80.35
48606;BME280;8482;54.396;18.590;2022-11-15T14:23:19;101329.44;;;8.58;80.39
48606;BME280;8482;54.396;18.590;2022-11-15T14:25:58;101337.28;;;8.59;80.39
48606;BME280;8482;54.396;18.590;2022-11-15T14:28:33;101331.22;;;8.57;80.69
48606;BME280;8482;54.396;18.590;2022-11-15T14:31:11;101328.59;;;8.57;80.85
48606;BME280;8482;54.396;18.590;2022-11-15T14:33:39;101324.34;;;8.55;80.73
48606;BME280;8482;54.396;18.590;2022-11-15T14:36:18;101325.28;;;8.54;80.68
48606;BME280;8482;54.396;18.590;2022-11-15T14:38:45;101328.97;;;8.51;80.74
48606;BME280;8482;54.396;18.590;2022-11-15T14:41:24;101328.03;;;8.52;80.98
48606;BME280;8482;54.396;18.590;2022-11-15T14:43:51;101329.03;;;8.50;81.01
48606;BME280;8482;54.396;18.590;2022-11-15T14:46:18;101330.00;;;8.49;81.23
48606;BME280;8482;54.396;18.590;2022-11-15T14:48:44;101328.22;;;8.49;81.31
48606;BME280;8482;54.396;18.590;2022-11-15T14:51:16;101332.63;;;8.49;81.46
48606;BME280;8482;54.396;18.590;2022-11-15T14:53:44;101316.09;;;8.45;81.66
48606;BME280;8482;54.396;18.590;2022-11-15T14:56:11;101323.94;;;8.47;81.25
48606;BME280;8482;54.396;18.590;2022-11-15T14:58:37;101326.50;;;8.48;81.73
48606;BME280;8482;54.396;18.590;2022-11-15T15:01:24;101324.00;;;8.45;81.58
48606;BME280;8482;54.396;18.590;2022-11-15T15:03:51;101330.16;;;8.46;81.88
48606;BME280;8482;54.396;18.590;2022-11-15T15:06:18;101327.59;;;8.44;81.77
48606;BME280;8482;54.396;18.590;2022-11-15T15:08:45;101338.94;;;8.46;81.93
48606;BME280;8482;54.396;18.590;2022-11-15T15:11:21;101329.31;;;8.45;82.05
48606;BME280;8482;54.396;18.590;2022-11-15T15:13:47;101332.81;;;8.46;81.78
48606;BME280;8482;54.396;18.590;2022-11-15T15:16:13;101323.25;;;8.43;82.06